createdAt,value
2023-02-19T00:01:01.465Z,83115.75
2023-02-19T00:04:12.748Z,83114.16
2023-02-19T00:07:15.302Z,83118.13
2023-02-19T00:10:18.166Z,83121.28
2023-02-19T00:13:20.614Z,83122.09
2023-02-19T00:16:37.910Z,83128.44
2023-02-19T00:19:40.246Z,83130.81
2023-02-19T00:22:42.845Z,83130.81
2023-02-19T00:25:45.266Z,83134.88
2023-02-19T00:28:49.013Z,83131.63
2023-02-19T00:31:51.443Z,83132.50
2023-02-19T00:34:54.227Z,83138.03
2023-02-19T00:37:56.675Z,83133.28
2023-02-19T00:41:00.517Z,83131.72
2023-02-19T00:44:05.557Z,83131.72
2023-02-19T00:47:08.194Z,83137.22
2023-02-19T00:50:13.052Z,83132.47
2023-02-19T00:53:16.072Z,83133.34
2023-02-19T00:56:18.947Z,83138.91
2023-02-19T00:59:21.713Z,83133.28
2023-02-19T01:02:24.756Z,83145.91
2023-02-19T01:05:28.696Z,83144.34
2023-02-19T01:08:31.396Z,83145.94
2023-02-19T01:11:35.886Z,83138.84
2023-02-19T01:14:38.282Z,83137.25
2023-02-19T01:17:40.958Z,83138.09
2023-02-19T01:20:44.818Z,83142.75
2023-02-19T01:23:48.084Z,83131.69
2023-02-19T01:26:50.436Z,83134.09
2023-02-19T01:29:53.115Z,83126.94
2023-02-19T01:32:55.534Z,83126.91
2023-02-19T01:35:58.803Z,83120.66
2023-02-19T01:39:04.084Z,83125.34
2023-02-19T01:42:14.068Z,83128.50
2023-02-19T01:45:31.285Z,83136.44
2023-02-19T01:48:38.361Z,83140.41
2023-02-19T01:51:48.352Z,83138.06
2023-02-19T01:54:51.650Z,83136.53
2023-02-19T01:57:56.366Z,83138.12
2023-02-19T02:01:01.465Z,83144.47
2023-02-19T02:04:06.461Z,83146.00
2023-02-19T02:07:29.257Z,83142.91
2023-02-19T02:10:32.014Z,83141.28
2023-02-19T02:13:36.677Z,83136.56
2023-02-19T02:16:47.974Z,83147.63
2023-02-19T02:20:11.648Z,83147.63
2023-02-19T02:23:39.624Z,83142.88
2023-02-19T02:26:45.368Z,83128.72
2023-02-19T02:30:21.532Z,83134.25
2023-02-19T02:33:31.744Z,83134.19
2023-02-19T02:36:38.514Z,83128.69
2023-02-19T02:39:42.831Z,83125.50
2023-02-19T02:42:45.807Z,83130.25
2023-02-19T02:45:49.319Z,83134.25
2023-02-19T02:49:05.549Z,83138.16
2023-02-19T02:52:29.515Z,83146.09
2023-02-19T02:55:39.117Z,83144.47
2023-02-19T02:58:43.458Z,83141.31
2023-02-19T03:02:12.707Z,83147.66
2023-02-19T03:05:44.284Z,83146.06
2023-02-19T03:08:56.799Z,83160.28
2023-02-19T03:12:22.440Z,83155.63
2023-02-19T03:15:48.839Z,83157.16
2023-02-19T03:19:13.586Z,83146.06
2023-02-19T03:22:30.994Z,83149.19
2023-02-19T03:25:56.499Z,83140.50
2023-02-19T03:29:22.101Z,83144.44
2023-02-19T03:32:34.429Z,83157.09
2023-02-19T03:35:41.990Z,83157.16
2023-02-19T03:38:52.134Z,83160.28
2023-02-19T03:42:04.212Z,83157.91
2023-02-19T03:45:26.241Z,83161.91
2023-02-19T03:48:33.255Z,83169.00
2023-02-19T03:51:45.118Z,83173.75
2023-02-19T03:55:11.144Z,83174.56
2023-02-19T03:58:28.978Z,83172.97
2023-02-19T04:01:47.502Z,83174.56
2023-02-19T04:04:58.932Z,83171.41
2023-02-19T04:08:16.610Z,83169.81
2023-02-19T04:11:21.480Z,83162.72
2023-02-19T04:14:30.176Z,83161.88
2023-02-19T04:17:41.330Z,83168.22
2023-02-19T04:20:45.523Z,83165.06
2023-02-19T04:23:48.999Z,83168.31
2023-02-19T04:26:52.471Z,83179.34
2023-02-19T04:29:55.083Z,83181.69
2023-02-19T04:32:57.514Z,83185.66
2023-02-19T04:36:00.229Z,83188.88
2023-02-19T04:39:02.742Z,83190.44
2023-02-19T04:42:05.427Z,83192.03
2023-02-19T04:45:08.194Z,83195.22
2023-02-19T04:48:12.230Z,83195.25
2023-02-19T04:51:14.671Z,83192.09
2023-02-19T04:54:17.370Z,83199.97
2023-02-19T04:57:25.674Z,83205.50
2023-02-19T05:00:28.433Z,83198.41
2023-02-19T05:03:31.428Z,83192.06
2023-02-19T05:06:34.075Z,83188.91
2023-02-19T05:09:36.539Z,83184.19
2023-02-19T05:12:39.160Z,83184.16
2023-02-19T05:15:41.590Z,83186.63
2023-02-19T05:18:46.679Z,83187.31
2023-02-19T05:21:49.090Z,83188.91
2023-02-19T05:24:51.760Z,83192.06
2023-02-19T05:28:14.022Z,83192.91
2023-02-19T05:31:17.101Z,83195.22
2023-02-19T05:34:19.767Z,83199.16
2023-02-19T05:37:22.801Z,83194.47
2023-02-19T05:40:25.225Z,83193.66
2023-02-19T05:43:27.965Z,83195.22
2023-02-19T05:46:31.059Z,83187.31
2023-02-19T05:49:33.808Z,83188.94
2023-02-19T05:52:36.383Z,83195.25
2023-02-19T05:55:39.135Z,83194.44
2023-02-19T05:58:41.442Z,83200.00
2023-02-19T06:01:44.259Z,83196.03
2023-02-19T06:04:46.897Z,83203.16
2023-02-19T06:07:50.581Z,83209.47
2023-02-19T06:10:53.236Z,83209.50
2023-02-19T06:13:55.583Z,83211.09
2023-02-19T06:16:58.300Z,83215.03
2023-02-19T06:20:01.140Z,83217.37
2023-02-19T06:23:03.933Z,83211.09
2023-02-19T06:26:12.405Z,83203.25
2023-02-19T06:29:17.046Z,83208.75
2023-02-19T06:32:19.616Z,83212.78
2023-02-19T06:35:22.788Z,83214.31
2023-02-19T06:38:26.293Z,83220.66
2023-02-19T06:41:29.046Z,83220.72
2023-02-19T06:44:31.966Z,83212.78
2023-02-19T06:47:34.751Z,83212.78
2023-02-19T06:50:37.413Z,83217.53
2023-02-19T06:53:40.430Z,83215.94
2023-02-19T06:56:46.126Z,83222.28
2023-02-19T06:59:49.708Z,83219.88
2023-02-19T07:02:56.597Z,83219.88
2023-02-19T07:05:59.913Z,83215.91
2023-02-19T07:09:04.526Z,83214.31
2023-02-19T07:12:07.778Z,83212.75
2023-02-19T07:15:10.181Z,83206.38
2023-02-19T07:18:12.946Z,83204.78
2023-02-19T07:21:16.786Z,83203.19
2023-02-19T07:24:21.551Z,83198.50
2023-02-19T07:27:24.198Z,83200.06
2023-02-19T07:30:26.975Z,83189.72
2023-02-19T07:33:29.774Z,83187.44
2023-02-19T07:36:32.554Z,83200.88
2023-02-19T07:39:34.873Z,83196.94
2023-02-19T07:42:37.700Z,83195.31
2023-02-19T07:45:41.363Z,83198.56
2023-02-19T07:48:44.727Z,83201.72
2023-02-19T07:51:47.110Z,83196.91
2023-02-19T07:54:49.913Z,83211.22
2023-02-19T07:57:52.263Z,83226.22
2023-02-19T08:00:55.182Z,83248.47
2023-02-19T08:03:57.966Z,83250.81
2023-02-19T08:07:00.422Z,83249.22
2023-02-19T08:10:23.385Z,83250.75
2023-02-19T08:13:27.772Z,83253.94
2023-02-19T08:16:42.637Z,83248.34
2023-02-19T08:19:45.570Z,83253.94
2023-02-19T08:22:48.235Z,83255.47
2023-02-19T08:25:52.379Z,83255.53
2023-02-19T08:28:59.097Z,83253.91
2023-02-19T08:32:01.622Z,83268.16
2023-02-19T08:35:04.608Z,83270.50
2023-02-19T08:38:08.631Z,83264.94
2023-02-19T08:41:13.582Z,83253.94
2023-02-19T08:44:16.242Z,83238.09
2023-02-19T08:47:18.977Z,83236.47
2023-02-19T08:50:22.437Z,83230.16
2023-02-19T08:53:26.017Z,83236.47
2023-02-19T08:56:28.478Z,83236.50
2023-02-19T08:59:32.387Z,83231.72
2023-02-19T09:02:35.468Z,83230.16
2023-02-19T09:05:39.073Z,83226.25
2023-02-19T09:08:41.557Z,83237.25
2023-02-19T09:11:44.420Z,83234.88
2023-02-19T09:14:47.011Z,83231.75
2023-02-19T09:17:53.038Z,83234.94
2023-02-19T09:20:55.501Z,83232.56
2023-02-19T09:24:01.077Z,83228.62
2023-02-19T09:27:03.918Z,83233.37
2023-02-19T09:30:07.189Z,83222.25
2023-02-19T09:33:12.200Z,83219.06
2023-02-19T09:36:16.486Z,83198.44
2023-02-19T09:39:19.034Z,83190.53
2023-02-19T09:42:29.969Z,83184.22
2023-02-19T09:45:32.390Z,83185.75
2023-02-19T09:48:35.282Z,83171.47
2023-02-19T09:51:40.208Z,83163.53
2023-02-19T09:54:43.536Z,83144.56
2023-02-19T09:57:47.246Z,83128.66
2023-02-19T10:00:51.220Z,83096.91
2023-02-19T10:03:54.022Z,83098.50
2023-02-19T10:07:03.302Z,83084.25
2023-02-19T10:10:14.998Z,83066.75
2023-02-19T10:13:34.708Z,83064.41
2023-02-19T10:16:42.233Z,83062.03
2023-02-19T10:19:44.923Z,83035.88
2023-02-19T10:22:47.828Z,83024.00
2023-02-19T10:25:54.900Z,82988.22
2023-02-19T10:28:57.555Z,82929.44
2023-02-19T10:32:24.333Z,82865.84
2023-02-19T10:35:27.883Z,82883.38
2023-02-19T10:38:40.630Z,82888.28
2023-02-19T10:41:44.392Z,82908.16
2023-02-19T10:44:53.622Z,82912.13
2023-02-19T10:47:57.250Z,82914.53
2023-02-19T10:51:11.642Z,82877.97
2023-02-19T10:54:28.624Z,82866.84
2023-02-19T10:57:33.149Z,82849.31
2023-02-19T11:00:35.861Z,82804.88
2023-02-19T11:03:38.545Z,82766.75
2023-02-19T11:06:41.301Z,82742.84
2023-02-19T11:09:46.487Z,82707.87
2023-02-19T11:12:52.102Z,82698.28
2023-02-19T11:15:55.855Z,82696.75
2023-02-19T11:18:58.574Z,82674.47
2023-02-19T11:22:01.801Z,82690.41
2023-02-19T11:25:10.340Z,82693.69
2023-02-19T11:28:34.566Z,82676.09
2023-02-19T11:31:37.896Z,82674.50
2023-02-19T11:34:41.141Z,82685.69
2023-02-19T11:37:55.772Z,82657.09
2023-02-19T11:41:11.845Z,82655.47
2023-02-19T11:44:30.342Z,82646.13
2023-02-19T11:48:09.909Z,82629.25
2023-02-19T11:51:20.034Z,82627.69
2023-02-19T11:54:34.322Z,82600.69
2023-02-19T11:57:40.054Z,82599.09
2023-02-19T12:01:08.699Z,82588.66
2023-02-19T12:04:20.486Z,82585.66
2023-02-19T12:07:34.968Z,82556.97
2023-02-19T12:10:55.004Z,82559.34
2023-02-19T12:14:55.107Z,82585.66
2023-02-19T12:18:16.477Z,82587.25
2023-02-19T12:21:56.355Z,82582.44
2023-02-19T12:25:17.114Z,82572.19
2023-02-19T12:28:19.447Z,82600.78
2023-02-19T12:31:37.919Z,82580.91
2023-02-19T12:35:04.721Z,82611.19
2023-02-19T12:38:26.302Z,82636.75
2023-02-19T12:41:48.013Z,82647.78
2023-02-19T12:44:58.899Z,82659.72
2023-02-19T12:48:07.610Z,82654.91
2023-02-19T12:51:13.835Z,82650.81
2023-02-19T12:54:30.810Z,82687.34
2023-02-19T12:57:37.171Z,82752.66
2023-02-19T13:00:42.568Z,82792.44
2023-02-19T13:04:02.061Z,82836.87
2023-02-19T13:07:14.588Z,82903.81
2023-02-19T13:10:58.974Z,82922.81
2023-02-19T13:14:07.239Z,82926.84
2023-02-19T13:17:50.491Z,82914.97
2023-02-19T13:20:55.778Z,82884.72
2023-02-19T13:23:58.672Z,82862.47
2023-02-19T13:27:25.495Z,82853.69
2023-02-19T13:31:05.595Z,82816.34
2023-02-19T13:34:32.479Z,82782.94
2023-02-19T13:37:35.798Z,82777.47
2023-02-19T13:40:52.640Z,82773.50
2023-02-19T13:44:02.391Z,82795.66
2023-02-19T13:47:06.413Z,82867.00
2023-02-19T13:50:31.051Z,82879.16
2023-02-19T13:53:45.379Z,82916.34
2023-02-19T13:56:49.195Z,82943.47
2023-02-19T13:59:56.109Z,82974.44
2023-02-19T14:03:28.687Z,82995.78
2023-02-19T14:07:03.222Z,82994.22
2023-02-19T14:10:12.260Z,83019.56
2023-02-19T14:13:50.755Z,83019.50
2023-02-19T14:17:07.559Z,83029.00
2023-02-19T14:20:10.215Z,83032.16
2023-02-19T14:23:24.345Z,83025.78
2023-02-19T14:26:28.053Z,83025.75
2023-02-19T14:29:30.425Z,83031.31
2023-02-19T14:32:33.160Z,83033.72
2023-02-19T14:35:40.593Z,83047.91
2023-02-19T14:38:51.916Z,83037.59
2023-02-19T14:42:07.823Z,83043.09
2023-02-19T14:45:10.823Z,83030.38
2023-02-19T14:48:24.046Z,83041.47
2023-02-19T14:51:40.400Z,83052.63
2023-02-19T14:54:50.186Z,83057.37
2023-02-19T14:57:56.026Z,83060.56
2023-02-19T15:00:58.476Z,83070.09
2023-02-19T15:04:01.208Z,83078.13
2023-02-19T15:07:08.569Z,83089.16
2023-02-19T15:10:15.087Z,83093.91
2023-02-19T15:13:24.587Z,83112.91
2023-02-19T15:16:29.250Z,83111.31
2023-02-19T15:19:39.645Z,83111.34
2023-02-19T15:22:42.996Z,83117.66
2023-02-19T15:25:45.547Z,83123.19
2023-02-19T15:28:57.649Z,83125.66
2023-02-19T15:32:01.417Z,83131.13
2023-02-19T15:35:05.091Z,83127.22
2023-02-19T15:38:12.645Z,83131.97
2023-02-19T15:41:21.412Z,83139.91
2023-02-19T15:44:32.639Z,83136.84
2023-02-19T15:47:44.108Z,83144.72
2023-02-19T15:50:55.160Z,83157.37
2023-02-19T15:54:07.582Z,83162.13
2023-02-19T15:57:17.356Z,83161.34
2023-02-19T16:00:35.497Z,83162.97
2023-02-19T16:03:38.952Z,83168.50
2023-02-19T16:07:00.534Z,83174.81
2023-02-19T16:10:23.816Z,83179.53
2023-02-19T16:13:28.360Z,83188.25
2023-02-19T16:16:39.941Z,83190.66
2023-02-19T16:19:52.558Z,83198.56
2023-02-19T16:23:13.053Z,83193.81
2023-02-19T16:26:15.609Z,83196.97
2023-02-19T16:29:24.116Z,83204.88
2023-02-19T16:32:26.716Z,83209.56
2023-02-19T16:35:37.834Z,83206.44
2023-02-19T16:38:40.332Z,83220.66
2023-02-19T16:41:46.619Z,83228.56
2023-02-19T16:44:49.086Z,83252.25
2023-02-19T16:47:51.827Z,83257.16
2023-02-19T16:50:54.454Z,83279.28
2023-02-19T16:53:57.755Z,83288.88
2023-02-19T16:57:00.121Z,83296.84
2023-02-19T17:00:03.439Z,83298.38
2023-02-19T17:03:12.454Z,83302.41
2023-02-19T17:06:15.777Z,83320.53
2023-02-19T17:09:18.089Z,83330.81
2023-02-19T17:12:22.175Z,83339.53
2023-02-19T17:15:24.688Z,83333.19
2023-02-19T17:18:27.729Z,83342.69
2023-02-19T17:21:32.014Z,83336.38
2023-02-19T17:24:34.916Z,83344.31
2023-02-19T17:27:37.507Z,83337.97
2023-02-19T17:30:40.605Z,83342.72
2023-02-19T17:33:43.160Z,83335.66
2023-02-19T17:36:48.263Z,83353.81
2023-02-19T17:39:50.857Z,83357.72
2023-02-19T17:42:53.540Z,83368.03
2023-02-19T17:45:55.950Z,83372.75
2023-02-19T17:48:58.616Z,83379.06
2023-02-19T17:52:00.995Z,83372.81
2023-02-19T17:55:03.760Z,83375.97
2023-02-19T17:58:06.290Z,83386.97
2023-02-19T18:01:09.052Z,83398.09
2023-02-19T18:04:11.905Z,83393.31
2023-02-19T18:07:14.299Z,83395.69
2023-02-19T18:10:20.186Z,83400.37
2023-02-19T18:13:22.549Z,83394.84
2023-02-19T18:16:25.621Z,83392.50
2023-02-19T18:19:28.035Z,83397.19
2023-02-19T18:22:32.247Z,83402.72
2023-02-19T18:25:34.934Z,83404.31
2023-02-19T18:28:38.278Z,83411.41
2023-02-19T18:31:40.868Z,83421.69
2023-02-19T18:34:43.657Z,83424.88
2023-02-19T18:37:52.665Z,83433.53
2023-02-19T18:40:57.814Z,83435.94
2023-02-19T18:44:01.120Z,83451.72
2023-02-19T18:47:03.968Z,83461.19
2023-02-19T18:50:08.405Z,83458.03
2023-02-19T18:53:11.601Z,83469.13
2023-02-19T18:56:14.091Z,83477.00
2023-02-19T18:59:17.027Z,83492.06
2023-02-19T19:02:20.031Z,83502.31
2023-02-19T19:05:23.345Z,83497.56
2023-02-19T19:08:25.770Z,83502.28
2023-02-19T19:11:28.423Z,83505.44
2023-02-19T19:14:30.983Z,83513.41
2023-02-19T19:17:34.966Z,83509.41
2023-02-19T19:20:37.899Z,83506.28
2023-02-19T19:23:40.501Z,83514.94
2023-02-19T19:26:47.211Z,83519.75
2023-02-19T19:29:50.048Z,83529.25
2023-02-19T19:32:53.729Z,83528.44
2023-02-19T19:35:56.686Z,83527.72
2023-02-19T19:38:59.113Z,83546.69
2023-02-19T19:42:01.849Z,83549.84
2023-02-19T19:45:05.453Z,83557.00
2023-02-19T19:48:08.360Z,83572.03
2023-02-19T19:51:11.248Z,83575.13
2023-02-19T19:54:14.670Z,83570.38
2023-02-19T19:57:17.111Z,83578.31
2023-02-19T20:00:23.593Z,83581.47
2023-02-19T20:03:27.239Z,83602.06
2023-02-19T20:06:31.674Z,83598.09
2023-02-19T20:09:34.680Z,83615.47
2023-02-19T20:12:40.711Z,83621.03
2023-02-19T20:15:43.596Z,83628.91
2023-02-19T20:18:45.904Z,83631.25
2023-02-19T20:21:53.293Z,83620.19
2023-02-19T20:24:55.841Z,83638.38
2023-02-19T20:27:58.499Z,83646.28
2023-02-19T20:31:00.973Z,83651.00
2023-02-19T20:34:04.167Z,83649.41
2023-02-19T20:37:07.819Z,83657.31
2023-02-19T20:40:12.726Z,83674.66
2023-02-19T20:43:15.099Z,83673.13
2023-02-19T20:46:17.925Z,83674.66
2023-02-19T20:49:24.901Z,83681.00
2023-02-19T20:52:27.556Z,83699.94
2023-02-19T20:55:30.240Z,83714.19
2023-02-19T20:58:33.134Z,83711.03
2023-02-19T21:01:35.543Z,83715.75
2023-02-19T21:04:39.434Z,83725.28
2023-02-19T21:07:41.720Z,83738.69
2023-02-19T21:10:46.371Z,83742.66
2023-02-19T21:13:48.767Z,83754.56
2023-02-19T21:16:51.428Z,83755.31
2023-02-19T21:19:53.768Z,83759.25
2023-02-19T21:22:56.473Z,83766.44
2023-02-19T21:25:58.909Z,83781.50
2023-02-19T21:29:01.613Z,83803.59
2023-02-19T21:32:04.090Z,83805.16
2023-02-19T21:35:07.269Z,83822.63
2023-02-19T21:38:09.943Z,83836.81
2023-02-19T21:41:12.687Z,83851.03
2023-02-19T21:44:16.140Z,83858.94
2023-02-19T21:47:18.888Z,83873.19
2023-02-19T21:50:24.368Z,83878.72
2023-02-19T21:53:27.178Z,83886.59
2023-02-19T21:56:31.710Z,83885.03
2023-02-19T21:59:34.478Z,83894.56
2023-02-19T22:02:38.804Z,83900.06
2023-02-19T22:05:43.599Z,83902.44
2023-02-19T22:08:45.983Z,83918.22
2023-02-19T22:11:48.614Z,83924.59
2023-02-19T22:14:51.718Z,83923.78
2023-02-19T22:17:54.964Z,83929.31
2023-02-19T22:20:57.441Z,83931.69
2023-02-19T22:24:02.206Z,83930.09
2023-02-19T22:27:04.636Z,83935.63
2023-02-19T22:30:07.775Z,83943.56
2023-02-19T22:33:10.263Z,83949.84
2023-02-19T22:36:20.733Z,83962.47
2023-02-19T22:39:26.105Z,83969.63
2023-02-19T22:42:29.412Z,83972.81
2023-02-19T22:45:31.825Z,83973.56
2023-02-19T22:48:34.566Z,83978.28
2023-02-19T22:51:36.940Z,83989.38
2023-02-19T22:54:39.621Z,83981.47
2023-02-19T22:57:41.919Z,83989.34
2023-02-19T23:00:44.690Z,83999.59
2023-02-19T23:03:58.261Z,83998.84
2023-02-19T23:07:01.006Z,84009.09
2023-02-19T23:10:03.760Z,84013.03
2023-02-19T23:13:06.599Z,84025.66
2023-02-19T23:16:09.369Z,84034.41
2023-02-19T23:19:15.856Z,84044.62
2023-02-19T23:22:18.523Z,84050.94
2023-02-19T23:25:21.176Z,84044.59
2023-02-19T23:28:23.767Z,84058.81
2023-02-19T23:31:26.990Z,84073.03
2023-02-19T23:34:29.411Z,84071.44
2023-02-19T23:37:32.231Z,84069.13
2023-02-19T23:40:34.710Z,84071.44
2023-02-19T23:43:37.559Z,84070.66
2023-02-19T23:46:40.117Z,84084.88
2023-02-19T23:49:42.778Z,84090.41
2023-02-19T23:52:45.161Z,84095.13
2023-02-19T23:55:47.820Z,84095.13
2023-02-19T23:58:50.177Z,84102.25
